Estación Meteorológica Peña el Pijo (Robertgarden) [ 10/21/17 19:44:15 CEST ]

Fecha Hora Presion(HPa) Temp (°C) Humedad % Rocio (°C) Viento ( m/s) Direccion Lluvia 1Hora(mm) Lluvia 24H(mm) LLuvia Total(mm)
2017-Jun-11 01:01:50 1012.800 16.2 67 10.1         1427.09
2017-Jun-11 02:01:47 1012.600 14.9 71 9.7         1427.09
2017-Jun-11 03:01:39 1012.400 14.1 73 9.3         1427.09
2017-Jun-11 04:01:38 1012.100 12.9 76 8.7         1427.09
2017-Jun-11 05:01:42 1011.900 12.2 77 8.3         1427.09
2017-Jun-11 06:01:42 1011.700 11.8 78 8.1         1427.09
2017-Jun-11 07:01:56 1012.000 11.3 79 7.8         1427.09
2017-Jun-11 08:01:31 1012.100 14.5 81 11.3         1427.09
2017-Jun-11 09:01:41 1012.500 20.8 59 12.5         1427.09
2017-Jun-11 10:02:00 1012.400 25.9 45 13.0         1427.09
2017-Jun-11 11:01:57 1012.300 29.1 37 12.9         1427.09
2017-Jun-11 12:01:51 1012.000 32.3 29 12.0         1427.09
2017-Jun-11 13:01:37 1012.000 33.6 24 10.0         1427.09
2017-Jun-11 14:01:38 1011.800 33.5 22 8.7         1427.09
2017-Jun-11 15:01:40 1011.600 34.8 23 10.4         1427.09
2017-Jun-11 16:01:36 1011.100 35.2 20 8.9         1427.09
2017-Jun-11 17:01:29 1011.000 34.6 20 8.4         1427.09
2017-Jun-11 18:01:28 1010.600 33.2 21 7.9         1427.09
2017-Jun-11 19:01:44 1010.500 30.8 22 6.5         1427.09
2017-Jun-11 20:01:31 1011.000 28.7 25 6.7         1427.09
2017-Jun-11 21:01:11 1011.500 24.8 30 6.2         1427.09
2017-Jun-11 22:01:42 1011.600 21.0 39 6.5         1427.09
2017-Jun-11 23:01:40 1012.400 17.8 47 6.3         1427.09

Temperatura Máxima:35°    Temperatura Mínima:11°
Presión Máxima:1012.800 Hpa    Presión Mínima:1010.500 Hpa


Volver